sensor_id;sensor_type;location;lat;lon;timestamp;P1;durP1;ratioP1;P2;durP2;ratioP2
27145;SDS011;17980;51.744;7.190;2022-08-01T00:02:21;17.60;;;15.60;;
27145;SDS011;17980;51.744;7.190;2022-08-01T00:04:48;18.93;;;14.87;;
27145;SDS011;17980;51.744;7.190;2022-08-01T00:07:16;17.07;;;15.33;;
27145;SDS011;17980;51.744;7.190;2022-08-01T00:09:43;18.03;;;15.37;;
27145;SDS011;17980;51.744;7.190;2022-08-01T00:12:10;17.73;;;16.03;;
27145;SDS011;17980;51.744;7.190;2022-08-01T00:14:38;19.63;;;15.30;;
27145;SDS011;17980;51.744;7.190;2022-08-01T00:17:05;19.17;;;15.73;;
27145;SDS011;17980;51.744;7.190;2022-08-01T00:19:32;18.03;;;14.53;;
27145;SDS011;17980;51.744;7.190;2022-08-01T00:22:00;20.30;;;15.20;;
27145;SDS011;17980;51.744;7.190;2022-08-01T00:24:27;16.03;;;14.40;;
27145;SDS011;17980;51.744;7.190;2022-08-01T00:26:54;16.13;;;13.90;;
27145;SDS011;17980;51.744;7.190;2022-08-01T00:29:22;17.07;;;15.27;;
27145;SDS011;17980;51.744;7.190;2022-08-01T00:31:49;18.13;;;15.07;;
27145;SDS011;17980;51.744;7.190;2022-08-01T00:34:16;19.87;;;15.80;;
27145;SDS011;17980;51.744;7.190;2022-08-01T00:36:44;15.00;;;13.50;;
27145;SDS011;17980;51.744;7.190;2022-08-01T00:39:12;16.50;;;13.87;;
27145;SDS011;17980;51.744;7.190;2022-08-01T00:41:39;19.67;;;14.87;;
27145;SDS011;17980;51.744;7.190;2022-08-01T00:44:06;15.83;;;13.57;;
27145;SDS011;17980;51.744;7.190;2022-08-01T00:46:34;15.10;;;13.47;;
27145;SDS011;17980;51.744;7.190;2022-08-01T00:49:01;19.27;;;13.23;;
27145;SDS011;17980;51.744;7.190;2022-08-01T00:51:28;17.33;;;13.47;;
27145;SDS011;17980;51.744;7.190;2022-08-01T00:53:57;16.23;;;14.70;;
27145;SDS011;17980;51.744;7.190;2022-08-01T00:56:24;19.70;;;14.43;;
27145;SDS011;17980;51.744;7.190;2022-08-01T00:58:54;16.33;;;14.37;;
27145;SDS011;17980;51.744;7.190;2022-08-01T01:01:22;17.83;;;14.70;;
27145;SDS011;17980;51.744;7.190;2022-08-01T01:03:49;18.07;;;14.30;;
27145;SDS011;17980;51.744;7.190;2022-08-01T01:06:39;17.67;;;15.60;;
27145;SDS011;17980;51.744;7.190;2022-08-01T01:09:17;14.90;;;13.47;;
27145;SDS011;17980;51.744;7.190;2022-08-01T01:11:52;19.37;;;14.47;;
27145;SDS011;17980;51.744;7.190;2022-08-01T01:14:34;16.93;;;15.10;;
27145;SDS011;17980;51.744;7.190;2022-08-01T01:17:07;15.80;;;14.20;;
27145;SDS011;17980;51.744;7.190;2022-08-01T01:19:36;17.53;;;15.50;;
27145;SDS011;17980;51.744;7.190;2022-08-01T01:22:10;16.83;;;14.93;;
27145;SDS011;17980;51.744;7.190;2022-08-01T01:25:04;19.33;;;14.67;;
27145;SDS011;17980;51.744;7.190;2022-08-01T01:27:39;19.77;;;15.87;;
27145;SDS011;17980;51.744;7.190;2022-08-01T01:30:10;16.50;;;14.70;;
27145;SDS011;17980;51.744;7.190;2022-08-01T01:32:39;18.23;;;16.17;;
27145;SDS011;17980;51.744;7.190;2022-08-01T01:35:21;17.97;;;15.47;;
27145;SDS011;17980;51.744;7.190;2022-08-01T01:37:56;18.37;;;13.70;;
27145;SDS011;17980;51.744;7.190;2022-08-01T01:40:22;15.53;;;13.07;;
27145;SDS011;17980;51.744;7.190;2022-08-01T01:42:51;13.07;;;10.63;;
27145;SDS011;17980;51.744;7.190;2022-08-01T01:45:22;12.57;;;9.70;;
27145;SDS011;17980;51.744;7.190;2022-08-01T01:47:51;11.67;;;8.73;;
27145;SDS011;17980;51.744;7.190;2022-08-01T01:50:21;14.43;;;9.67;;
27145;SDS011;17980;51.744;7.190;2022-08-01T01:52:49;12.37;;;9.07;;
27145;SDS011;17980;51.744;7.190;2022-08-01T01:55:18;10.20;;;9.17;;
27145;SDS011;17980;51.744;7.190;2022-08-01T01:57:48;10.20;;;8.87;;
27145;SDS011;17980;51.744;7.190;2022-08-01T02:00:16;11.90;;;9.90;;
27145;SDS011;17980;51.744;7.190;2022-08-01T02:02:44;13.70;;;10.33;;
27145;SDS011;17980;51.744;7.190;2022-08-01T02:05:13;11.67;;;10.50;;
27145;SDS011;17980;51.744;7.190;2022-08-01T02:07:41;16.00;;;10.43;;
27145;SDS011;17980;51.744;7.190;2022-08-01T02:10:10;13.80;;;11.37;;
27145;SDS011;17980;51.744;7.190;2022-08-01T02:12:57;14.40;;;12.50;;
27145;SDS011;17980;51.744;7.190;2022-08-01T02:15:25;13.97;;;12.47;;
27145;SDS011;17980;51.744;7.190;2022-08-01T02:17:54;13.90;;;12.33;;
27145;SDS011;17980;51.744;7.190;2022-08-01T02:20:22;14.30;;;12.53;;
27145;SDS011;17980;51.744;7.190;2022-08-01T02:22:53;14.00;;;12.53;;
27145;SDS011;17980;51.744;7.190;2022-08-01T02:25:23;15.27;;;12.43;;
27145;SDS011;17980;51.744;7.190;2022-08-01T02:27:56;15.20;;;12.33;;
27145;SDS011;17980;51.744;7.190;2022-08-01T02:30:42;14.50;;;12.20;;
27145;SDS011;17980;51.744;7.190;2022-08-01T02:33:12;14.73;;;13.17;;
27145;SDS011;17980;51.744;7.190;2022-08-01T02:35:41;15.20;;;12.20;;
27145;SDS011;17980;51.744;7.190;2022-08-01T02:38:11;15.27;;;12.50;;
27145;SDS011;17980;51.744;7.190;2022-08-01T02:40:41;13.47;;;12.03;;
27145;SDS011;17980;51.744;7.190;2022-08-01T02:43:12;14.07;;;11.57;;
27145;SDS011;17980;51.744;7.190;2022-08-01T02:45:45;13.67;;;10.33;;
27145;SDS011;17980;51.744;7.190;2022-08-01T02:48:15;13.10;;;9.57;;
27145;SDS011;17980;51.744;7.190;2022-08-01T02:50:45;15.73;;;10.23;;
27145;SDS011;17980;51.744;7.190;2022-08-01T02:53:16;10.60;;;9.50;;
27145;SDS011;17980;51.744;7.190;2022-08-01T02:55:47;10.33;;;9.30;;
27145;SDS011;17980;51.744;7.190;2022-08-01T02:58:16;14.00;;;9.10;;
27145;SDS011;17980;51.744;7.190;2022-08-01T03:01:03;14.50;;;10.27;;
27145;SDS011;17980;51.744;7.190;2022-08-01T03:03:32;10.40;;;8.87;;
27145;SDS011;17980;51.744;7.190;2022-08-01T03:06:01;12.33;;;9.87;;
27145;SDS011;17980;51.744;7.190;2022-08-01T03:08:30;12.10;;;9.50;;
27145;SDS011;17980;51.744;7.190;2022-08-01T03:10:58;11.57;;;9.40;;
27145;SDS011;17980;51.744;7.190;2022-08-01T03:13:27;9.23;;;8.17;;
27145;SDS011;17980;51.744;7.190;2022-08-01T03:15:57;9.43;;;8.47;;
27145;SDS011;17980;51.744;7.190;2022-08-01T03:18:26;11.60;;;8.33;;
27145;SDS011;17980;51.744;7.190;2022-08-01T03:20:55;11.07;;;8.20;;
27145;SDS011;17980;51.744;7.190;2022-08-01T03:23:25;9.23;;;7.73;;
27145;SDS011;17980;51.744;7.190;2022-08-01T03:25:54;8.93;;;7.40;;
27145;SDS011;17980;51.744;7.190;2022-08-01T03:28:22;7.93;;;6.93;;
27145;SDS011;17980;51.744;7.190;2022-08-01T03:30:50;13.67;;;7.00;;
27145;SDS011;17980;51.744;7.190;2022-08-01T03:33:18;8.57;;;7.13;;
27145;SDS011;17980;51.744;7.190;2022-08-01T03:35:47;8.50;;;6.50;;
27145;SDS011;17980;51.744;7.190;2022-08-01T03:38:18;8.10;;;6.13;;
27145;SDS011;17980;51.744;7.190;2022-08-01T03:41:06;13.23;;;7.20;;
27145;SDS011;17980;51.744;7.190;2022-08-01T03:43:37;7.63;;;6.40;;
27145;SDS011;17980;51.744;7.190;2022-08-01T03:46:09;7.93;;;6.57;;
27145;SDS011;17980;51.744;7.190;2022-08-01T03:48:55;11.23;;;5.97;;
27145;SDS011;17980;51.744;7.190;2022-08-01T03:51:25;7.77;;;6.10;;
27145;SDS011;17980;51.744;7.190;2022-08-01T03:53:56;8.63;;;7.13;;
27145;SDS011;17980;51.744;7.190;2022-08-01T03:56:37;10.27;;;6.93;;
27145;SDS011;17980;51.744;7.190;2022-08-01T03:59:07;10.40;;;8.03;;
27145;SDS011;17980;51.744;7.190;2022-08-01T04:01:36;8.00;;;6.70;;
27145;SDS011;17980;51.744;7.190;2022-08-01T04:04:04;9.73;;;7.70;;
27145;SDS011;17980;51.744;7.190;2022-08-01T04:06:32;8.70;;;7.80;;
27145;SDS011;17980;51.744;7.190;2022-08-01T04:08:59;10.07;;;7.17;;
27145;SDS011;17980;51.744;7.190;2022-08-01T04:11:27;8.10;;;7.30;;
27145;SDS011;17980;51.744;7.190;2022-08-01T04:13:54;10.13;;;7.57;;
27145;SDS011;17980;51.744;7.190;2022-08-01T04:16:23;10.53;;;8.07;;
27145;SDS011;17980;51.744;7.190;2022-08-01T04:18:50;9.53;;;8.57;;
27145;SDS011;17980;51.744;7.190;2022-08-01T04:21:18;10.93;;;8.57;;
27145;SDS011;17980;51.744;7.190;2022-08-01T04:23:49;13.13;;;8.03;;
27145;SDS011;17980;51.744;7.190;2022-08-01T04:26:19;12.17;;;7.83;;
27145;SDS011;17980;51.744;7.190;2022-08-01T04:28:47;12.80;;;8.50;;
27145;SDS011;17980;51.744;7.190;2022-08-01T04:31:17;10.30;;;7.50;;
27145;SDS011;17980;51.744;7.190;2022-08-01T04:33:56;9.03;;;8.03;;
27145;SDS011;17980;51.744;7.190;2022-08-01T04:36:25;14.53;;;7.60;;
27145;SDS011;17980;51.744;7.190;2022-08-01T04:38:55;7.57;;;6.87;;
27145;SDS011;17980;51.744;7.190;2022-08-01T04:41:25;8.87;;;6.43;;
27145;SDS011;17980;51.744;7.190;2022-08-01T04:43:53;9.50;;;6.37;;
27145;SDS011;17980;51.744;7.190;2022-08-01T04:46:21;9.97;;;6.60;;
27145;SDS011;17980;51.744;7.190;2022-08-01T04:48:49;7.03;;;6.33;;
27145;SDS011;17980;51.744;7.190;2022-08-01T04:51:17;9.13;;;6.53;;
27145;SDS011;17980;51.744;7.190;2022-08-01T04:53:47;7.30;;;6.47;;
27145;SDS011;17980;51.744;7.190;2022-08-01T04:56:16;7.43;;;6.40;;
27145;SDS011;17980;51.744;7.190;2022-08-01T04:58:45;7.60;;;6.60;;
27145;SDS011;17980;51.744;7.190;2022-08-01T05:01:12;6.93;;;6.10;;
27145;SDS011;17980;51.744;7.190;2022-08-01T05:03:39;7.33;;;6.53;;
27145;SDS011;17980;51.744;7.190;2022-08-01T05:06:07;10.83;;;6.97;;
27145;SDS011;17980;51.744;7.190;2022-08-01T05:08:47;8.50;;;6.07;;
27145;SDS011;17980;51.744;7.190;2022-08-01T05:11:14;6.70;;;5.70;;
27145;SDS011;17980;51.744;7.190;2022-08-01T05:13:41;6.73;;;6.00;;
27145;SDS011;17980;51.744;7.190;2022-08-01T05:16:09;8.57;;;6.20;;
27145;SDS011;17980;51.744;7.190;2022-08-01T05:18:36;8.90;;;6.40;;
27145;SDS011;17980;51.744;7.190;2022-08-01T05:21:03;7.07;;;6.40;;
27145;SDS011;17980;51.744;7.190;2022-08-01T05:23:30;6.80;;;5.70;;
27145;SDS011;17980;51.744;7.190;2022-08-01T05:25:58;7.87;;;6.53;;
27145;SDS011;17980;51.744;7.190;2022-08-01T05:28:25;7.97;;;6.43;;
27145;SDS011;17980;51.744;7.190;2022-08-01T05:30:52;11.80;;;6.90;;
27145;SDS011;17980;51.744;7.190;2022-08-01T05:33:20;8.77;;;6.87;;
27145;SDS011;17980;51.744;7.190;2022-08-01T05:35:48;7.93;;;6.93;;
27145;SDS011;17980;51.744;7.190;2022-08-01T05:38:15;12.80;;;6.87;;
27145;SDS011;17980;51.744;7.190;2022-08-01T05:40:42;9.23;;;6.30;;
27145;SDS011;17980;51.744;7.190;2022-08-01T05:43:10;7.13;;;6.43;;
27145;SDS011;17980;51.744;7.190;2022-08-01T05:45:37;10.57;;;6.43;;
27145;SDS011;17980;51.744;7.190;2022-08-01T05:48:04;8.93;;;6.73;;
27145;SDS011;17980;51.744;7.190;2022-08-01T05:50:33;7.67;;;6.97;;
27145;SDS011;17980;51.744;7.190;2022-08-01T05:53:00;8.53;;;7.40;;
27145;SDS011;17980;51.744;7.190;2022-08-01T05:55:27;9.07;;;7.43;;
27145;SDS011;17980;51.744;7.190;2022-08-01T05:57:55;10.03;;;7.60;;
27145;SDS011;17980;51.744;7.190;2022-08-01T06:00:22;8.60;;;6.60;;
27145;SDS011;17980;51.744;7.190;2022-08-01T06:02:49;7.30;;;6.60;;
27145;SDS011;17980;51.744;7.190;2022-08-01T06:05:17;6.53;;;5.73;;
27145;SDS011;17980;51.744;7.190;2022-08-01T06:07:44;7.23;;;6.37;;
27145;SDS011;17980;51.744;7.190;2022-08-01T06:10:11;6.83;;;6.13;;
27145;SDS011;17980;51.744;7.190;2022-08-01T06:12:39;6.10;;;5.50;;
27145;SDS011;17980;51.744;7.190;2022-08-01T06:15:07;5.87;;;5.23;;
27145;SDS011;17980;51.744;7.190;2022-08-01T06:17:35;5.90;;;4.57;;
27145;SDS011;17980;51.744;7.190;2022-08-01T06:20:02;4.97;;;4.47;;
27145;SDS011;17980;51.744;7.190;2022-08-01T06:22:38;4.70;;;3.97;;
27145;SDS011;17980;51.744;7.190;2022-08-01T06:25:08;4.77;;;3.90;;
27145;SDS011;17980;51.744;7.190;2022-08-01T06:27:35;4.50;;;4.00;;
27145;SDS011;17980;51.744;7.190;2022-08-01T06:30:04;3.67;;;3.37;;
27145;SDS011;17980;51.744;7.190;2022-08-01T06:32:33;4.27;;;3.23;;
27145;SDS011;17980;51.744;7.190;2022-08-01T06:35:00;4.53;;;3.50;;
27145;SDS011;17980;51.744;7.190;2022-08-01T06:37:28;3.53;;;3.23;;
27145;SDS011;17980;51.744;7.190;2022-08-01T06:40:00;4.87;;;3.23;;
27145;SDS011;17980;51.744;7.190;2022-08-01T06:42:28;4.80;;;3.53;;
27145;SDS011;17980;51.744;7.190;2022-08-01T06:45:14;4.67;;;4.27;;
27145;SDS011;17980;51.744;7.190;2022-08-01T06:47:43;5.80;;;5.13;;
27145;SDS011;17980;51.744;7.190;2022-08-01T06:50:11;6.00;;;5.47;;
27145;SDS011;17980;51.744;7.190;2022-08-01T06:52:40;7.60;;;6.23;;
27145;SDS011;17980;51.744;7.190;2022-08-01T06:55:08;6.83;;;6.30;;
27145;SDS011;17980;51.744;7.190;2022-08-01T06:57:36;7.67;;;6.23;;
27145;SDS011;17980;51.744;7.190;2022-08-01T07:00:07;6.10;;;5.60;;
27145;SDS011;17980;51.744;7.190;2022-08-01T07:02:37;8.47;;;5.90;;
27145;SDS011;17980;51.744;7.190;2022-08-01T07:05:05;7.20;;;6.50;;
27145;SDS011;17980;51.744;7.190;2022-08-01T07:07:33;6.03;;;5.53;;
27145;SDS011;17980;51.744;7.190;2022-08-01T07:10:00;18.07;;;5.87;;
27145;SDS011;17980;51.744;7.190;2022-08-01T07:12:28;6.00;;;5.30;;
27145;SDS011;17980;51.744;7.190;2022-08-01T07:14:56;5.83;;;4.60;;
27145;SDS011;17980;51.744;7.190;2022-08-01T07:17:23;4.53;;;4.13;;
27145;SDS011;17980;51.744;7.190;2022-08-01T07:19:51;5.90;;;4.27;;
27145;SDS011;17980;51.744;7.190;2022-08-01T07:22:20;4.87;;;4.47;;
27145;SDS011;17980;51.744;7.190;2022-08-01T07:24:47;6.53;;;3.63;;
27145;SDS011;17980;51.744;7.190;2022-08-01T07:27:15;4.47;;;4.07;;
27145;SDS011;17980;51.744;7.190;2022-08-01T07:29:42;6.33;;;4.03;;
27145;SDS011;17980;51.744;7.190;2022-08-01T07:32:09;5.90;;;3.73;;
27145;SDS011;17980;51.744;7.190;2022-08-01T07:34:38;3.97;;;3.57;;
27145;SDS011;17980;51.744;7.190;2022-08-01T07:37:18;5.30;;;4.73;;
27145;SDS011;17980;51.744;7.190;2022-08-01T07:39:45;4.73;;;3.63;;
27145;SDS011;17980;51.744;7.190;2022-08-01T07:42:17;3.93;;;3.63;;
27145;SDS011;17980;51.744;7.190;2022-08-01T07:44:44;4.53;;;4.13;;
27145;SDS011;17980;51.744;7.190;2022-08-01T07:47:12;3.97;;;3.53;;
27145;SDS011;17980;51.744;7.190;2022-08-01T07:49:39;3.17;;;2.90;;
27145;SDS011;17980;51.744;7.190;2022-08-01T07:52:07;9.60;;;2.87;;
27145;SDS011;17980;51.744;7.190;2022-08-01T07:54:35;3.43;;;2.60;;
27145;SDS011;17980;51.744;7.190;2022-08-01T07:57:02;2.93;;;2.70;;
27145;SDS011;17980;51.744;7.190;2022-08-01T07:59:30;3.80;;;2.53;;
27145;SDS011;17980;51.744;7.190;2022-08-01T08:01:57;1.73;;;1.60;;
27145;SDS011;17980;51.744;7.190;2022-08-01T08:04:25;1.70;;;1.60;;
27145;SDS011;17980;51.744;7.190;2022-08-01T08:06:53;1.77;;;1.67;;
27145;SDS011;17980;51.744;7.190;2022-08-01T08:09:20;1.80;;;1.60;;
27145;SDS011;17980;51.744;7.190;2022-08-01T08:11:48;2.57;;;1.80;;
27145;SDS011;17980;51.744;7.190;2022-08-01T08:14:16;2.17;;;2.07;;
27145;SDS011;17980;51.744;7.190;2022-08-01T08:16:44;1.40;;;1.30;;
27145;SDS011;17980;51.744;7.190;2022-08-01T08:19:11;1.80;;;1.70;;
27145;SDS011;17980;51.744;7.190;2022-08-01T08:21:39;1.67;;;1.57;;
27145;SDS011;17980;51.744;7.190;2022-08-01T08:24:07;2.13;;;1.90;;
27145;SDS011;17980;51.744;7.190;2022-08-01T08:27:01;2.90;;;1.83;;
27145;SDS011;17980;51.744;7.190;2022-08-01T08:29:40;0.87;;;0.87;;
27145;SDS011;17980;51.744;7.190;2022-08-01T08:32:08;2.73;;;1.00;;
27145;SDS011;17980;51.744;7.190;2022-08-01T08:34:47;1.97;;;0.83;;
27145;SDS011;17980;51.744;7.190;2022-08-01T08:37:15;1.73;;;0.90;;
27145;SDS011;17980;51.744;7.190;2022-08-01T08:39:43;3.47;;;0.70;;
27145;SDS011;17980;51.744;7.190;2022-08-01T08:42:10;1.23;;;0.67;;
27145;SDS011;17980;51.744;7.190;2022-08-01T08:44:38;0.60;;;0.60;;
27145;SDS011;17980;51.744;7.190;2022-08-01T08:47:06;2.53;;;0.60;;
27145;SDS011;17980;51.744;7.190;2022-08-01T08:49:36;0.40;;;0.40;;
27145;SDS011;17980;51.744;7.190;2022-08-01T08:52:04;2.07;;;0.57;;
27145;SDS011;17980;51.744;7.190;2022-08-01T08:54:44;0.40;;;0.40;;
27145;SDS011;17980;51.744;7.190;2022-08-01T08:57:13;0.83;;;0.60;;
27145;SDS011;17980;51.744;7.190;2022-08-01T08:59:43;0.90;;;0.57;;
27145;SDS011;17980;51.744;7.190;2022-08-01T09:02:10;2.57;;;0.60;;
27145;SDS011;17980;51.744;7.190;2022-08-01T09:04:50;0.20;;;0.20;;
27145;SDS011;17980;51.744;7.190;2022-08-01T09:07:18;2.23;;;0.20;;
27145;SDS011;17980;51.744;7.190;2022-08-01T09:09:45;0.10;;;0.10;;
27145;SDS011;17980;51.744;7.190;2022-08-01T09:12:16;0.13;;;0.07;;
27145;SDS011;17980;51.744;7.190;2022-08-01T09:14:47;0.20;;;0.10;;
27145;SDS011;17980;51.744;7.190;2022-08-01T09:17:18;0.20;;;0.20;;
27145;SDS011;17980;51.744;7.190;2022-08-01T09:19:46;1.40;;;0.07;;
27145;SDS011;17980;51.744;7.190;2022-08-01T09:22:17;0.10;;;0.00;;
27145;SDS011;17980;51.744;7.190;2022-08-01T09:25:03;0.10;;;0.10;;
27145;SDS011;17980;51.744;7.190;2022-08-01T09:27:32;0.30;;;0.17;;
27145;SDS011;17980;51.744;7.190;2022-08-01T09:30:08;1.40;;;0.10;;
27145;SDS011;17980;51.744;7.190;2022-08-01T09:32:37;0.20;;;0.10;;
27145;SDS011;17980;51.744;7.190;2022-08-01T09:35:27;0.20;;;0.10;;
27145;SDS011;17980;51.744;7.190;2022-08-01T09:38:13;0.10;;;0.10;;
27145;SDS011;17980;51.744;7.190;2022-08-01T09:40:48;0.20;;;0.10;;
27145;SDS011;17980;51.744;7.190;2022-08-01T09:43:18;2.93;;;0.20;;
27145;SDS011;17980;51.744;7.190;2022-08-01T09:45:46;1.60;;;0.10;;
27145;SDS011;17980;51.744;7.190;2022-08-01T09:48:14;0.00;;;0.00;;
27145;SDS011;17980;51.744;7.190;2022-08-01T09:50:42;0.10;;;0.10;;
27145;SDS011;17980;51.744;7.190;2022-08-01T09:53:12;0.00;;;0.00;;
27145;SDS011;17980;51.744;7.190;2022-08-01T09:55:40;0.60;;;0.00;;
27145;SDS011;17980;51.744;7.190;2022-08-01T09:58:08;0.10;;;0.10;;
27145;SDS011;17980;51.744;7.190;2022-08-01T10:00:37;1.27;;;0.10;;
27145;SDS011;17980;51.744;7.190;2022-08-01T10:03:18;0.10;;;0.10;;
27145;SDS011;17980;51.744;7.190;2022-08-01T10:05:47;0.30;;;0.03;;
27145;SDS011;17980;51.744;7.190;2022-08-01T10:08:15;0.20;;;0.20;;
27145;SDS011;17980;51.744;7.190;2022-08-01T10:10:47;0.10;;;0.10;;
27145;SDS011;17980;51.744;7.190;2022-08-01T10:13:33;0.20;;;0.20;;
27145;SDS011;17980;51.744;7.190;2022-08-01T10:16:00;2.43;;;0.03;;
27145;SDS011;17980;51.744;7.190;2022-08-01T10:18:28;1.50;;;0.27;;
27145;SDS011;17980;51.744;7.190;2022-08-01T10:20:59;0.10;;;0.10;;
27145;SDS011;17980;51.744;7.190;2022-08-01T10:23:30;2.73;;;0.13;;
27145;SDS011;17980;51.744;7.190;2022-08-01T10:26:09;0.10;;;0.10;;
27145;SDS011;17980;51.744;7.190;2022-08-01T10:28:38;0.10;;;0.10;;
27145;SDS011;17980;51.744;7.190;2022-08-01T10:31:07;0.20;;;0.10;;
27145;SDS011;17980;51.744;7.190;2022-08-01T10:36:13;0.33;;;0.10;;
27145;SDS011;17980;51.744;7.190;2022-08-01T10:38:43;0.47;;;0.10;;
27145;SDS011;17980;51.744;7.190;2022-08-01T10:41:11;0.10;;;0.10;;
27145;SDS011;17980;51.744;7.190;2022-08-01T10:43:41;0.20;;;0.20;;
27145;SDS011;17980;51.744;7.190;2022-08-01T10:46:08;0.10;;;0.10;;
27145;SDS011;17980;51.744;7.190;2022-08-01T10:48:39;0.50;;;0.20;;
27145;SDS011;17980;51.744;7.190;2022-08-01T10:51:30;0.17;;;0.17;;
27145;SDS011;17980;51.744;7.190;2022-08-01T10:54:02;0.20;;;0.20;;
27145;SDS011;17980;51.744;7.190;2022-08-01T10:56:38;0.10;;;0.10;;
27145;SDS011;17980;51.744;7.190;2022-08-01T10:59:12;0.30;;;0.10;;
27145;SDS011;17980;51.744;7.190;2022-08-01T11:01:42;0.10;;;0.10;;
27145;SDS011;17980;51.744;7.190;2022-08-01T11:04:32;0.40;;;0.20;;
27145;SDS011;17980;51.744;7.190;2022-08-01T11:07:04;0.23;;;0.10;;
27145;SDS011;17980;51.744;7.190;2022-08-01T11:09:39;0.73;;;0.10;;
27145;SDS011;17980;51.744;7.190;2022-08-01T11:12:09;0.23;;;0.13;;
27145;SDS011;17980;51.744;7.190;2022-08-01T11:17:59;0.30;;;0.10;;
27145;SDS011;17980;51.744;7.190;2022-08-01T11:20:28;0.20;;;0.20;;
27145;SDS011;17980;51.744;7.190;2022-08-01T11:26:08;0.17;;;0.17;;
27145;SDS011;17980;51.744;7.190;2022-08-01T11:28:37;0.30;;;0.10;;
27145;SDS011;17980;51.744;7.190;2022-08-01T11:31:26;0.30;;;0.30;;
27145;SDS011;17980;51.744;7.190;2022-08-01T11:33:58;0.30;;;0.30;;
27145;SDS011;17980;51.744;7.190;2022-08-01T11:36:30;0.20;;;0.20;;
27145;SDS011;17980;51.744;7.190;2022-08-01T11:39:22;0.30;;;0.20;;
27145;SDS011;17980;51.744;7.190;2022-08-01T11:42:19;0.57;;;0.23;;
27145;SDS011;17980;51.744;7.190;2022-08-01T11:44:49;0.57;;;0.40;;
27145;SDS011;17980;51.744;7.190;2022-08-01T11:47:18;1.23;;;0.37;;
27145;SDS011;17980;51.744;7.190;2022-08-01T11:50:07;0.50;;;0.30;;
27145;SDS011;17980;51.744;7.190;2022-08-01T11:52:49;0.47;;;0.23;;
27145;SDS011;17980;51.744;7.190;2022-08-01T11:55:37;1.03;;;0.40;;
27145;SDS011;17980;51.744;7.190;2022-08-01T11:58:09;0.20;;;0.20;;
27145;SDS011;17980;51.744;7.190;2022-08-01T12:00:36;0.40;;;0.20;;
27145;SDS011;17980;51.744;7.190;2022-08-01T12:03:08;0.43;;;0.40;;
27145;SDS011;17980;51.744;7.190;2022-08-01T12:05:38;0.63;;;0.30;;
27145;SDS011;17980;51.744;7.190;2022-08-01T12:08:30;0.43;;;0.40;;
27145;SDS011;17980;51.744;7.190;2022-08-01T12:11:00;1.07;;;0.60;;
27145;SDS011;17980;51.744;7.190;2022-08-01T12:13:43;2.33;;;0.50;;
27145;SDS011;17980;51.744;7.190;2022-08-01T12:16:23;4.77;;;0.60;;
27145;SDS011;17980;51.744;7.190;2022-08-01T12:18:55;0.70;;;0.53;;
27145;SDS011;17980;51.744;7.190;2022-08-01T12:21:23;1.83;;;0.73;;
27145;SDS011;17980;51.744;7.190;2022-08-01T12:24:01;2.00;;;0.50;;
27145;SDS011;17980;51.744;7.190;2022-08-01T12:26:39;2.40;;;0.30;;
27145;SDS011;17980;51.744;7.190;2022-08-01T12:29:08;0.97;;;0.40;;
27145;SDS011;17980;51.744;7.190;2022-08-01T12:31:36;0.57;;;0.40;;
27145;SDS011;17980;51.744;7.190;2022-08-01T12:36:53;2.53;;;0.60;;
27145;SDS011;17980;51.744;7.190;2022-08-01T12:39:35;0.70;;;0.50;;
27145;SDS011;17980;51.744;7.190;2022-08-01T12:42:05;2.10;;;0.40;;
27145;SDS011;17980;51.744;7.190;2022-08-01T12:44:36;1.37;;;0.40;;
27145;SDS011;17980;51.744;7.190;2022-08-01T12:47:05;1.60;;;0.50;;
27145;SDS011;17980;51.744;7.190;2022-08-01T12:49:35;0.63;;;0.40;;
27145;SDS011;17980;51.744;7.190;2022-08-01T12:52:04;1.60;;;0.50;;
27145;SDS011;17980;51.744;7.190;2022-08-01T12:57:36;0.50;;;0.50;;
27145;SDS011;17980;51.744;7.190;2022-08-01T13:00:14;1.13;;;0.50;;
27145;SDS011;17980;51.744;7.190;2022-08-01T13:02:44;1.20;;;0.73;;
27145;SDS011;17980;51.744;7.190;2022-08-01T13:05:14;2.17;;;0.60;;
27145;SDS011;17980;51.744;7.190;2022-08-01T13:07:43;1.10;;;0.60;;
27145;SDS011;17980;51.744;7.190;2022-08-01T13:10:14;0.83;;;0.50;;
27145;SDS011;17980;51.744;7.190;2022-08-01T13:12:51;1.77;;;0.53;;
27145;SDS011;17980;51.744;7.190;2022-08-01T13:15:22;2.13;;;0.60;;
27145;SDS011;17980;51.744;7.190;2022-08-01T13:18:00;1.10;;;0.40;;
27145;SDS011;17980;51.744;7.190;2022-08-01T13:20:31;0.77;;;0.60;;
27145;SDS011;17980;51.744;7.190;2022-08-01T13:23:10;1.37;;;0.37;;
27145;SDS011;17980;51.744;7.190;2022-08-01T13:25:52;1.30;;;0.30;;
27145;SDS011;17980;51.744;7.190;2022-08-01T13:28:22;0.80;;;0.50;;
27145;SDS011;17980;51.744;7.190;2022-08-01T13:31:05;1.40;;;0.40;;
27145;SDS011;17980;51.744;7.190;2022-08-01T13:33:41;3.60;;;0.40;;
27145;SDS011;17980;51.744;7.190;2022-08-01T13:36:12;2.87;;;0.50;;
27145;SDS011;17980;51.744;7.190;2022-08-01T13:38:42;3.10;;;0.60;;
27145;SDS011;17980;51.744;7.190;2022-08-01T13:41:28;0.93;;;0.43;;
27145;SDS011;17980;51.744;7.190;2022-08-01T13:44:11;2.13;;;0.53;;
27145;SDS011;17980;51.744;7.190;2022-08-01T13:46:40;2.50;;;0.50;;
27145;SDS011;17980;51.744;7.190;2022-08-01T13:49:09;0.83;;;0.53;;
27145;SDS011;17980;51.744;7.190;2022-08-01T13:51:37;2.53;;;0.67;;
27145;SDS011;17980;51.744;7.190;2022-08-01T13:54:20;1.70;;;0.70;;
27145;SDS011;17980;51.744;7.190;2022-08-01T13:56:50;1.10;;;0.60;;
27145;SDS011;17980;51.744;7.190;2022-08-01T13:59:20;3.17;;;0.80;;
27145;SDS011;17980;51.744;7.190;2022-08-01T14:01:48;0.97;;;0.67;;
27145;SDS011;17980;51.744;7.190;2022-08-01T14:04:16;3.80;;;1.00;;
27145;SDS011;17980;51.744;7.190;2022-08-01T14:06:47;2.90;;;0.80;;
27145;SDS011;17980;51.744;7.190;2022-08-01T14:09:15;2.43;;;0.70;;
27145;SDS011;17980;51.744;7.190;2022-08-01T14:12:00;3.33;;;0.90;;
27145;SDS011;17980;51.744;7.190;2022-08-01T14:14:29;3.37;;;1.00;;
27145;SDS011;17980;51.744;7.190;2022-08-01T14:16:57;2.47;;;1.20;;
27145;SDS011;17980;51.744;7.190;2022-08-01T14:19:25;2.80;;;0.90;;
27145;SDS011;17980;51.744;7.190;2022-08-01T14:21:53;2.97;;;0.90;;
27145;SDS011;17980;51.744;7.190;2022-08-01T14:24:22;1.57;;;0.60;;
27145;SDS011;17980;51.744;7.190;2022-08-01T14:26:52;1.57;;;0.43;;
27145;SDS011;17980;51.744;7.190;2022-08-01T14:29:20;2.30;;;0.50;;
27145;SDS011;17980;51.744;7.190;2022-08-01T14:31:48;2.53;;;0.70;;
27145;SDS011;17980;51.744;7.190;2022-08-01T14:34:16;3.70;;;0.80;;
27145;SDS011;17980;51.744;7.190;2022-08-01T14:36:44;2.70;;;0.80;;
27145;SDS011;17980;51.744;7.190;2022-08-01T14:39:11;4.10;;;1.10;;
27145;SDS011;17980;51.744;7.190;2022-08-01T14:41:39;1.83;;;0.70;;
27145;SDS011;17980;51.744;7.190;2022-08-01T14:44:07;2.60;;;0.70;;
27145;SDS011;17980;51.744;7.190;2022-08-01T14:46:46;2.17;;;0.90;;
27145;SDS011;17980;51.744;7.190;2022-08-01T14:49:19;2.10;;;0.80;;
27145;SDS011;17980;51.744;7.190;2022-08-01T14:51:46;6.30;;;1.00;;
27145;SDS011;17980;51.744;7.190;2022-08-01T14:54:14;3.47;;;1.17;;
27145;SDS011;17980;51.744;7.190;2022-08-01T14:56:42;2.83;;;0.70;;
27145;SDS011;17980;51.744;7.190;2022-08-01T14:59:15;1.57;;;0.73;;
27145;SDS011;17980;51.744;7.190;2022-08-01T15:01:42;1.37;;;0.63;;
27145;SDS011;17980;51.744;7.190;2022-08-01T15:04:10;1.57;;;0.50;;
27145;SDS011;17980;51.744;7.190;2022-08-01T15:06:38;3.20;;;0.70;;
27145;SDS011;17980;51.744;7.190;2022-08-01T15:09:08;1.70;;;0.57;;
27145;SDS011;17980;51.744;7.190;2022-08-01T15:11:36;1.07;;;0.57;;
27145;SDS011;17980;51.744;7.190;2022-08-01T15:14:05;3.77;;;1.00;;
27145;SDS011;17980;51.744;7.190;2022-08-01T15:16:50;2.13;;;0.60;;
27145;SDS011;17980;51.744;7.190;2022-08-01T15:19:22;4.07;;;0.70;;